Adventure Cat 2 — WDA9411 — position and weather

sailwx.info

Track history (hours):
 
Tides and Currents Weather Stations Pressure Air Temp Water Temp Dewpoint Dewpoint Depression Visibility Wind Speed Wind Dir Waves Ship Positions

Adventure Cat 2

Owner: ADVENTURE CAT INC, NAPA, CA. More information available from US FCC via Universal Licensing System and Coast Guard Vessel Documentation Center.

Last reported at 2018-Jun-19 03:30 UTC. Time now 2018-Jun-19 12:34 UTC.
Position N 37°49' W 122°25'.

Length 20 m; draft 3 m.

Type: Sailing vessel. MMSI: 366864850.

Date/timePositionNaut miles runAvg speedWind from/ knotsBaromVisibWave heightAir tempDewpointWater temp
2018-Jun-19 03:30N 37°49' W 122°25'3 5.5
2018-Jun-19 03:01N 37°49' W 122°28'1 2.9
2018-Jun-19 02:30N 37°50' W 122°27'2 0.6
2018-Jun-18 23:25N 37°49' W 122°25'3 7.1
2018-Jun-18 23:01N 37°49' W 122°28'2 3.9
2018-Jun-18 22:30N 37°51' W 122°27'3 3.1
2018-Jun-18 21:25N 37°49' W 122°25'3 7.2
2018-Jun-18 21:00N 37°49' W 122°28'2 3.4
2018-Jun-18 20:30N 37°51' W 122°27'2 2.5
2018-Jun-18 19:30N 37°49' W 122°25'3 6.0
2018-Jun-18 19:00N 37°50' W 122°29'2 3.1
2018-Jun-18 18:29N 37°51' W 122°27'2 0.2
2018-Jun-18 03:26N 37°49' W 122°25'2 5.5
2018-Jun-18 03:01N 37°49' W 122°28'0 0.9
2018-Jun-18 02:30N 37°49' W 122°27'2 0.5
2018-Jun-17 23:22N 37°49' W 122°25'3 8.0
2018-Jun-17 23:01N 37°49' W 122°29'2 4.5
2018-Jun-17 22:30N 37°51' W 122°27'3 2.6
2018-Jun-17 21:24N 37°49' W 122°25'3 7.6
2018-Jun-17 21:01N 37°49' W 122°29'2 4.5
2018-Jun-17 20:29N 37°51' W 122°27'2 1.8
2018-Jun-17 19:20N 37°49' W 122°25'3 9.1
2018-Jun-17 19:01N 37°49' W 122°29'2 4.0
2018-Jun-17 18:30N 37°51' W 122°27'3 0.2
2018-Jun-17 03:19N 37°49' W 122°25'1 2.6
2018-Jun-17 03:00N 37°49' W 122°26'2 4.3
2018-Jun-17 02:30N 37°50' W 122°28'3 0.8
2018-Jun-16 23:18N 37°49' W 122°25'2 6.8
2018-Jun-16 23:00N 37°49' W 122°27'1 2.1
2018-Jun-16 22:30N 37°50' W 122°27'2 2.0
2018-Jun-16 21:24N 37°49' W 122°25'3 8.2
2018-Jun-16 21:00N 37°49' W 122°29'2 3.7
2018-Jun-16 20:25N 37°50' W 122°26'2 1.4
2018-Jun-16 19:19N 37°49' W 122°25'3 9.1
2018-Jun-16 19:00N 37°49' W 122°29'2 3.8
2018-Jun-16 18:30N 37°49' W 122°26'1 0.1
2018-Jun-16 03:38N 37°49' W 122°25'1 8.3
2018-Jun-16 03:30N 37°49' W 122°26'2 3.4
2018-Jun-16 03:00N 37°49' W 122°28'2 3.6
2018-Jun-16 02:30N 37°50' W 122°26'2 0.7
2018-Jun-15 23:21N 37°49' W 122°25'1 2.6
2018-Jun-15 22:59N 37°50' W 122°25'2 5.1
2018-Jun-15 22:30N 37°50' W 122°28'3 2.9
2018-Jun-15 21:29N 37°49' W 122°25'3 6.4
2018-Jun-15 21:01N 37°50' W 122°29'1 2.8
2018-Jun-15 20:31N 37°50' W 122°27'2 1.9
2018-Jun-15 19:25N 37°49' W 122°25'2 5.8
2018-Jun-15 19:00N 37°50' W 122°27'0 0.8
2018-Jun-15 18:30N 37°50' W 122°27'2 0.1
2018-Jun-15 03:18N 37°49' W 122°25'2 7.4
2018-Jun-15 03:00N 37°49' W 122°28'1 2.5
2018-Jun-15 02:30N 37°51' W 122°28'3 0.9
2018-Jun-14 23:23N 37°49' W 122°25'2 5.6
2018-Jun-14 22:59N 37°50' W 122°27'1 1.9
2018-Jun-14 22:30N 37°49' W 122°28'2 2.1
2018-Jun-14 21:29N 37°49' W 122°25'2 4.6
2018-Jun-14 21:00N 37°50' W 122°28'2 3.3
2018-Jun-14 20:30N 37°51' W 122°26'2 2.4
2018-Jun-14 19:32N 37°49' W 122°25'013.3
2018-Jun-14 19:30N 37°49' W 122°25'3 4.6
2018-Jun-14 18:51N 37°52' W 122°28'3 5.7
2018-Jun-14 18:17N 37°49' W 122°25'1 0.0
2018-Jun-14 03:30N 37°49' W 122°25'1 2.1
2018-Jun-14 03:00N 37°50' W 122°25'3 6.6
2018-Jun-14 02:30N 37°49' W 122°29'3 5.8
2018-Jun-14 02:00N 37°49' W 122°25'1 0.3
2018-Jun-13 23:43N 37°49' W 122°25'0 0.9
2018-Jun-13 23:23N 37°49' W 122°24'1 2.3
2018-Jun-13 23:00N 37°49' W 122°25'3 5.6
2018-Jun-13 22:30N 37°49' W 122°29'3 5.2
2018-Jun-13 21:51N 37°49' W 122°25'0 0.5
2018-Jun-13 21:27N 37°49' W 122°25'3 5.8
2018-Jun-13 21:00N 37°49' W 122°28'1 2.5
2018-Jun-13 20:30N 37°50' W 122°27'2 1.5
2018-Jun-13 19:21N 37°49' W 122°25'2 7.2
2018-Jun-13 19:00N 37°49' W 122°28'2 3.3
2018-Jun-13 18:30N 37°51' W 122°27'3 0.2
2018-Jun-13 03:27N 37°49' W 122°24'2 5.5
2018-Jun-13 03:00N 37°49' W 122°27'1 1.7
2018-Jun-13 02:30N 37°50' W 122°28'3 0.9
2018-Jun-12 23:27N 37°49' W 122°25'2 3.7
2018-Jun-12 23:00N 37°49' W 122°27'2 4.0
2018-Jun-12 22:30N 37°50' W 122°28'3 2.5
2018-Jun-12 21:21N 37°49' W 122°25'2 5.8
2018-Jun-12 21:00N 37°49' W 122°28'1 2.3
2018-Jun-12 20:30N 37°50' W 122°28'3 2.2
2018-Jun-12 19:21N 37°49' W 122°25'3 8.9
2018-Jun-12 19:00N 37°49' W 122°29'2 4.3
2018-Jun-12 18:30N 37°51' W 122°27'2 0.2
2018-Jun-12 03:24N 37°49' W 122°25'2 6.3
2018-Jun-12 03:00N 37°49' W 122°28'1 1.0
2018-Jun-12 02:30N 37°50' W 122°27'2 0.1
2018-Jun-11 03:25N 37°49' W 122°25'2 5.8
2018-Jun-11 03:00N 37°49' W 122°28'1 1.8
2018-Jun-11 02:30N 37°49' W 122°27'2 0.5
2018-Jun-10 23:25N 37°49' W 122°25'3 6.1
2018-Jun-10 23:00N 37°49' W 122°28'2 2.9
2018-Jun-10 22:29N 37°50' W 122°27'3 2.5
2018-Jun-10 21:26N 37°49' W 122°25'3 6.1
2018-Jun-10 21:00N 37°49' W 122°28'1 2.6
2018-Jun-10 20:30N 37°50' W 122°27'3 2.5
2018-Jun-10 19:26N 37°49' W 122°25'3 6.5
2018-Jun-10 19:00N 37°49' W 122°28'1 2.5
2018-Jun-10 18:30N 37°50' W 122°27'3 0.2
2018-Jun-10 03:27N 37°49' W 122°25'3 5.9
2018-Jun-10 03:00N 37°50' W 122°28'1 2.8
2018-Jun-10 02:30N 37°50' W 122°26'2 0.5
2018-Jun-09 23:23N 37°49' W 122°25'3 7.2
2018-Jun-09 23:01N 37°50' W 122°28'1 2.6
2018-Jun-09 22:30N 37°51' W 122°27'2 2.4
2018-Jun-09 21:30N 37°49' W 122°25'3 5.8
2018-Jun-09 21:00N 37°49' W 122°29'2 4.1
2018-Jun-09 20:30N 37°51' W 122°27'2 2.5
2018-Jun-09 19:32N 37°49' W 122°25'0 9.8
2018-Jun-09 19:31N 37°49' W 122°25'2 4.1
2018-Jun-09 19:01N 37°50' W 122°27'1 2.1
2018-Jun-09 18:30N 37°49' W 122°28'  
Track history (hours):
 
Tides and Currents Weather Stations Pressure Air Temp Water Temp Dewpoint Dewpoint Depression Visibility Wind Speed Wind Dir Waves Ship Positions

Adventure Cat 2

Owner: ADVENTURE CAT INC, NAPA, CA. More information available from US FCC via Universal Licensing System and Coast Guard Vessel Documentation Center.

Last reported at 2018-Jun-19 03:30 UTC. Time now 2018-Jun-19 12:34 UTC.
Position N 37°49' W 122°25'.

Length 20 m; draft 3 m.

Type: Sailing vessel. MMSI: 366864850.

Date/timePositionNaut miles runAvg speedWind from/ knotsBaromVisibWave heightAir tempDewpointWater temp
2018-Jun-19 03:30N 37°49' W 122°25'3 5.5
2018-Jun-19 03:01N 37°49' W 122°28'1 2.9
2018-Jun-19 02:30N 37°50' W 122°27'2 0.6
2018-Jun-18 23:25N 37°49' W 122°25'3 7.1
2018-Jun-18 23:01N 37°49' W 122°28'2 3.9
2018-Jun-18 22:30N 37°51' W 122°27'3 3.1
2018-Jun-18 21:25N 37°49' W 122°25'3 7.2
2018-Jun-18 21:00N 37°49' W 122°28'2 3.4
2018-Jun-18 20:30N 37°51' W 122°27'2 2.5
2018-Jun-18 19:30N 37°49' W 122°25'3 6.0
2018-Jun-18 19:00N 37°50' W 122°29'2 3.1
2018-Jun-18 18:29N 37°51' W 122°27'2 0.2
2018-Jun-18 03:26N 37°49' W 122°25'2 5.5
2018-Jun-18 03:01N 37°49' W 122°28'0 0.9
2018-Jun-18 02:30N 37°49' W 122°27'2 0.5
2018-Jun-17 23:22N 37°49' W 122°25'3 8.0
2018-Jun-17 23:01N 37°49' W 122°29'2 4.5
2018-Jun-17 22:30N 37°51' W 122°27'3 2.6
2018-Jun-17 21:24N 37°49' W 122°25'3 7.6
2018-Jun-17 21:01N 37°49' W 122°29'2 4.5
2018-Jun-17 20:29N 37°51' W 122°27'2 1.8
2018-Jun-17 19:20N 37°49' W 122°25'3 9.1
2018-Jun-17 19:01N 37°49' W 122°29'2 4.0
2018-Jun-17 18:30N 37°51' W 122°27'3 0.2
2018-Jun-17 03:19N 37°49' W 122°25'1 2.6
2018-Jun-17 03:00N 37°49' W 122°26'2 4.3
2018-Jun-17 02:30N 37°50' W 122°28'3 0.8
2018-Jun-16 23:18N 37°49' W 122°25'2 6.8
2018-Jun-16 23:00N 37°49' W 122°27'1 2.1
2018-Jun-16 22:30N 37°50' W 122°27'2 2.0
2018-Jun-16 21:24N 37°49' W 122°25'3 8.2
2018-Jun-16 21:00N 37°49' W 122°29'2 3.7
2018-Jun-16 20:25N 37°50' W 122°26'2 1.4
2018-Jun-16 19:19N 37°49' W 122°25'3 9.1
2018-Jun-16 19:00N 37°49' W 122°29'2 3.8
2018-Jun-16 18:30N 37°49' W 122°26'1 0.1
2018-Jun-16 03:38N 37°49' W 122°25'1 8.3
2018-Jun-16 03:30N 37°49' W 122°26'2 3.4
2018-Jun-16 03:00N 37°49' W 122°28'2 3.6
2018-Jun-16 02:30N 37°50' W 122°26'2 0.7
2018-Jun-15 23:21N 37°49' W 122°25'1 2.6
2018-Jun-15 22:59N 37°50' W 122°25'2 5.1
2018-Jun-15 22:30N 37°50' W 122°28'3 2.9
2018-Jun-15 21:29N 37°49' W 122°25'3 6.4
2018-Jun-15 21:01N 37°50' W 122°29'1 2.8
2018-Jun-15 20:31N 37°50' W 122°27'2 1.9
2018-Jun-15 19:25N 37°49' W 122°25'2 5.8
2018-Jun-15 19:00N 37°50' W 122°27'0 0.8
2018-Jun-15 18:30N 37°50' W 122°27'2 0.1
2018-Jun-15 03:18N 37°49' W 122°25'2 7.4
2018-Jun-15 03:00N 37°49' W 122°28'1 2.5
2018-Jun-15 02:30N 37°51' W 122°28'3 0.9
2018-Jun-14 23:23N 37°49' W 122°25'2 5.6
2018-Jun-14 22:59N 37°50' W 122°27'1 1.9
2018-Jun-14 22:30N 37°49' W 122°28'2 2.1
2018-Jun-14 21:29N 37°49' W 122°25'2 4.6
2018-Jun-14 21:00N 37°50' W 122°28'2 3.3
2018-Jun-14 20:30N 37°51' W 122°26'2 2.4
2018-Jun-14 19:32N 37°49' W 122°25'013.3
2018-Jun-14 19:30N 37°49' W 122°25'3 4.6
2018-Jun-14 18:51N 37°52' W 122°28'3 5.7
2018-Jun-14 18:17N 37°49' W 122°25'1 0.0
2018-Jun-14 03:30N 37°49' W 122°25'1 2.1
2018-Jun-14 03:00N 37°50' W 122°25'3 6.6
2018-Jun-14 02:30N 37°49' W 122°29'3 5.8
2018-Jun-14 02:00N 37°49' W 122°25'1 0.3
2018-Jun-13 23:43N 37°49' W 122°25'0 0.9
2018-Jun-13 23:23N 37°49' W 122°24'1 2.3
2018-Jun-13 23:00N 37°49' W 122°25'3 5.6
2018-Jun-13 22:30N 37°49' W 122°29'3 5.2
2018-Jun-13 21:51N 37°49' W 122°25'0 0.5
2018-Jun-13 21:27N 37°49' W 122°25'3 5.8
2018-Jun-13 21:00N 37°49' W 122°28'1 2.5
2018-Jun-13 20:30N 37°50' W 122°27'2 1.5
2018-Jun-13 19:21N 37°49' W 122°25'2 7.2
2018-Jun-13 19:00N 37°49' W 122°28'2 3.3
2018-Jun-13 18:30N 37°51' W 122°27'3 0.2
2018-Jun-13 03:27N 37°49' W 122°24'2 5.5
2018-Jun-13 03:00N 37°49' W 122°27'1 1.7
2018-Jun-13 02:30N 37°50' W 122°28'3 0.9
2018-Jun-12 23:27N 37°49' W 122°25'2 3.7
2018-Jun-12 23:00N 37°49' W 122°27'2 4.0
2018-Jun-12 22:30N 37°50' W 122°28'3 2.5
2018-Jun-12 21:21N 37°49' W 122°25'2 5.8
2018-Jun-12 21:00N 37°49' W 122°28'1 2.3
2018-Jun-12 20:30N 37°50' W 122°28'3 2.2
2018-Jun-12 19:21N 37°49' W 122°25'3 8.9
2018-Jun-12 19:00N 37°49' W 122°29'2 4.3
2018-Jun-12 18:30N 37°51' W 122°27'2 0.2
2018-Jun-12 03:24N 37°49' W 122°25'2 6.3
2018-Jun-12 03:00N 37°49' W 122°28'1 1.0
2018-Jun-12 02:30N 37°50' W 122°27'2 0.1
2018-Jun-11 03:25N 37°49' W 122°25'2 5.8
2018-Jun-11 03:00N 37°49' W 122°28'1 1.8
2018-Jun-11 02:30N 37°49' W 122°27'2 0.5
2018-Jun-10 23:25N 37°49' W 122°25'3 6.1
2018-Jun-10 23:00N 37°49' W 122°28'2 2.9
2018-Jun-10 22:29N 37°50' W 122°27'3 2.5
2018-Jun-10 21:26N 37°49' W 122°25'3 6.1
2018-Jun-10 21:00N 37°49' W 122°28'1 2.6
2018-Jun-10 20:30N 37°50' W 122°27'3 2.5
2018-Jun-10 19:26N 37°49' W 122°25'3 6.5
2018-Jun-10 19:00N 37°49' W 122°28'1 2.5
2018-Jun-10 18:30N 37°50' W 122°27'3 0.2
2018-Jun-10 03:27N 37°49' W 122°25'3 5.9
2018-Jun-10 03:00N 37°50' W 122°28'1 2.8
2018-Jun-10 02:30N 37°50' W 122°26'2 0.5
2018-Jun-09 23:23N 37°49' W 122°25'3 7.2
2018-Jun-09 23:01N 37°50' W 122°28'1 2.6
2018-Jun-09 22:30N 37°51' W 122°27'2 2.4
2018-Jun-09 21:30N 37°49' W 122°25'3 5.8
2018-Jun-09 21:00N 37°49' W 122°29'2 4.1
2018-Jun-09 20:30N 37°51' W 122°27'2 2.5
2018-Jun-09 19:32N 37°49' W 122°25'0 9.8
2018-Jun-09 19:31N 37°49' W 122°25'2 4.1
2018-Jun-09 19:01N 37°50' W 122°27'1 2.1
2018-Jun-09 18:30N 37°49' W 122°28'  

Dump ship's entire track history